キンシャサ の空港の天気 - METARとTAF

キンシャサ/ヌジリ国際空港 ( FZAA / FIH ) - コンゴ民主共和国 キンシャサ
飛行場実況気象(Metar)
観測時間06/24 10:00 WAT (06/24 09:00 UTC)
風向・風速西南西 5m/s
視程4000m
天気現象もや
全天の4割程度の雲 雲底高度 550m
気温25℃
湿度69%
気圧1016hPa
METARFZAA 240900Z 24010KT 4000 BR SCT018 25/19 Q1016 NOSIG
過去の天気等 Google飛行場航空写真 Wunderground天気予報

過去48時間のMETAR

飛行場予報(TAF)
発表時間: 6/24 06:00 WAT (6/24 05:00 UTC)
予報対象時間: 24日7時 WAT ~ 25日13時 WAT
風向・風速南 2m/s
視程2500m
天気現象もや
全天の4割程度の雲 雲底高度 490m
24日7時 WAT から 確率 30% で
視程800m
天気現象霧雨霧
24日10時 WAT ~ 24日13時 WAT に徐々に
風向・風速西 5m/s
視程6000m
天気現象運行に影響にある天気現象が終了
24日18時 WAT ~ 24日20時 WAT に徐々に
風向・風速南南西 2m/s
視程4000m
天気現象もや
25日7時 WAT ~ 25日11時 WAT に一時的に
視程1500m
天気現象もや
全天の8割程度の雲 雲底高度 430m
TAF FZAA 240500Z 2406/2512 18004KT 2500 BR SCT016
PROB30 2406/2408 0800 DZFG
BECMG 2409/2412 26010KT 6000 NSW
BECMG 2417/2419 20004KT 4000 BR
TEMPO 2506/2510 1500 BR BKN014